Time;durP1;ratioP1;P1;durP2;ratioP2;P2;SDS_P1;SDS_P2;PMS_P1;PMS_P2;Temp;Humidity;BMP_temperature;BMP_pressure;BME280_temperature;BME280_humidity;BME280_pressure;Samples;Min_cycle;Max_cycle;Signal;HPM_P1;HPM_P2
2023/05/20 00:00:47;;;;;;;4.78;2.75;;;;;;;16.07;57.72;100134.66;5012183;28;20056;-88
2023/05/20 00:03:15;;;;;;;5.05;3.25;;;;;;;16.09;57.47;100142.53;5023970;28;20041;-87
2023/05/20 00:05:42;;;;;;;7.32;3.30;;;;;;;16.10;57.45;100145.03;5027425;28;20037;-87
2023/05/20 00:08:09;;;;;;;6.13;3.50;;;;;;;16.05;57.78;100148.22;5027698;28;20626;-87
2023/05/20 00:10:37;;;;;;;5.47;3.45;;;;;;;16.05;57.89;100139.34;5012918;28;20072;-87
2023/05/20 00:13:05;;;;;;;5.03;3.13;;;;;;;16.04;57.81;100135.81;5012669;28;20055;-88
2023/05/20 00:15:33;;;;;;;8.65;3.85;;;;;;;16.03;57.60;100134.16;5028842;28;20446;-87
2023/05/20 00:18:00;;;;;;;6.20;2.92;;;;;;;16.02;58.03;100137.81;5045466;28;20037;-88
2023/05/20 00:20:27;;;;;;;9.43;4.00;;;;;;;15.97;58.60;100129.44;5031601;28;20090;-88
2023/05/20 00:22:54;;;;;;;8.18;3.58;;;;;;;15.88;59.55;100126.94;5010305;28;20057;-87
2023/05/20 00:25:21;;;;;;;6.13;3.00;;;;;;;15.89;58.55;100129.41;5024143;28;20068;-87
2023/05/20 00:27:48;;;;;;;5.40;3.20;;;;;;;15.89;58.60;100126.75;5024666;28;20449;-88
2023/05/20 00:30:15;;;;;;;8.38;3.90;;;;;;;15.83;59.45;100122.06;4991896;28;20045;-87
2023/05/20 00:32:41;;;;;;;4.32;3.15;;;;;;;15.70;60.62;100124.31;5010806;28;20049;-88
2023/05/20 00:35:10;;;;;;;5.90;3.38;;;;;;;15.75;59.28;100117.50;5016187;28;20102;-88
2023/05/20 00:37:37;;;;;;;7.40;3.47;;;;;;;15.80;58.97;100127.75;5027450;28;20567;-87
2023/05/20 00:40:04;;;;;;;5.38;3.13;;;;;;;15.81;59.08;100121.38;5007841;28;20068;-87
2023/05/20 00:42:31;;;;;;;5.60;2.95;;;;;;;15.85;58.70;100120.06;5019460;28;20057;-88
2023/05/20 00:44:58;;;;;;;4.90;2.92;;;;;;;15.81;58.83;100119.53;5010387;28;20408;-87
2023/05/20 00:47:28;;;;;;;8.23;3.60;;;;;;;15.79;58.57;100116.16;5013505;28;20045;-88
2023/05/20 00:49:56;;;;;;;5.53;3.40;;;;;;;15.83;58.52;100112.16;4995924;28;20055;-87
2023/05/20 00:52:23;;;;;;;5.28;3.60;;;;;;;15.81;58.97;100113.34;5025647;28;20444;-88
2023/05/20 00:54:50;;;;;;;5.28;3.72;;;;;;;15.72;59.77;100108.94;5021775;28;20068;-88
2023/05/20 00:57:18;;;;;;;10.05;5.30;;;;;;;15.72;59.69;100119.66;5011979;28;20518;-88
2023/05/20 00:59:45;;;;;;;4.72;3.15;;;;;;;15.72;59.37;100107.13;5009029;28;20048;-87
2023/05/20 01:02:12;;;;;;;6.63;3.28;;;;;;;15.70;59.31;100106.44;5009801;28;20053;-88
2023/05/20 01:04:40;;;;;;;5.95;3.20;;;;;;;15.67;59.93;100111.25;5023573;28;20128;-87
2023/05/20 01:07:07;;;;;;;4.70;3.35;;;;;;;15.61;60.07;100100.19;5027612;28;20056;-88
2023/05/20 01:09:34;;;;;;;5.85;3.45;;;;;;;15.61;60.33;100112.72;5008836;28;20126;-87
2023/05/20 01:12:08;;;;;;;5.22;3.42;;;;;;;15.60;60.39;100103.03;4997978;28;20049;-88
2023/05/20 01:14:39;;;;;;;5.80;3.42;;;;;;;15.61;59.98;100105.53;5024266;28;20471;-87
2023/05/20 01:17:09;;;;;;;6.50;3.30;;;;;;;15.60;60.00;100101.19;4989405;28;20049;-87
2023/05/20 01:19:44;;;;;;;5.10;3.85;;;;;;;15.55;61.00;100100.84;5043116;28;20476;-87
2023/05/20 01:22:13;;;;;;;9.15;4.10;;;;;;;15.48;61.14;100101.66;5000230;28;20401;-88
2023/05/20 01:24:43;;;;;;;6.13;3.65;;;;;;;15.54;60.86;100099.13;5000263;28;20112;-88
2023/05/20 01:27:12;;;;;;;7.38;3.70;;;;;;;15.50;61.34;100105.00;5025780;28;20071;-87
2023/05/20 01:29:41;;;;;;;6.93;3.58;;;;;;;15.52;61.14;100100.31;4993328;28;20076;-87
2023/05/20 01:32:15;;;;;;;6.43;3.42;;;;;;;15.52;60.75;100098.50;5010004;28;20036;-88
2023/05/20 01:34:42;;;;;;;6.55;3.60;;;;;;;15.60;60.62;100100.34;4992351;28;20041;-88
2023/05/20 01:37:09;;;;;;;6.97;4.10;;;;;;;15.56;61.04;100101.66;5024668;28;20048;-88
2023/05/20 01:39:40;;;;;;;8.60;3.95;;;;;;;15.56;61.43;100096.31;5024748;28;20053;-87
2023/05/20 01:42:09;;;;;;;9.23;4.20;;;;;;;15.59;60.92;100099.50;5024916;28;20674;-86
2023/05/20 01:44:36;;;;;;;7.18;4.20;;;;;;;15.58;61.14;100097.00;5025598;28;20057;-89
2023/05/20 01:47:03;;;;;;;5.07;3.50;;;;;;;15.59;61.65;100094.13;5041895;28;20071;-88
2023/05/20 01:49:30;;;;;;;6.43;4.20;;;;;;;15.58;62.10;100086.28;5008755;28;20059;-87
2023/05/20 01:51:57;;;;;;;9.88;4.03;;;;;;;15.59;61.85;100098.66;4989431;28;20034;-88
2023/05/20 01:54:24;;;;;;;6.20;3.50;;;;;;;15.63;60.84;100098.19;5011599;28;20105;-88
2023/05/20 01:56:52;;;;;;;7.03;4.25;;;;;;;15.65;60.78;100095.34;5010897;28;20064;-87
2023/05/20 01:59:21;;;;;;;5.43;4.10;;;;;;;15.63;61.00;100089.31;5007674;28;20052;-87
2023/05/20 02:01:49;;;;;;;6.32;4.05;;;;;;;15.63;61.18;100092.81;5041066;28;20048;-88
2023/05/20 02:04:17;;;;;;;12.75;3.65;;;;;;;15.61;61.62;100088.63;5014460;28;20049;-88
2023/05/20 02:06:45;;;;;;;5.28;3.65;;;;;;;15.65;61.17;100084.66;4995264;28;20113;-88
2023/05/20 02:09:11;;;;;;;8.75;4.00;;;;;;;15.62;61.86;100091.16;5022007;28;20143;-88
2023/05/20 02:11:38;;;;;;;6.80;3.67;;;;;;;15.63;61.51;100094.66;5026388;28;20554;-88
2023/05/20 02:14:05;;;;;;;7.38;4.00;;;;;;;15.66;60.88;100085.47;4992980;28;20061;-87
2023/05/20 02:16:32;;;;;;;6.25;3.60;;;;;;;15.60;61.13;100071.75;5011669;28;20076;-87
2023/05/20 02:19:00;;;;;;;7.55;4.10;;;;;;;15.61;61.14;100078.75;5006523;28;20076;-88
2023/05/20 02:21:27;;;;;;;15.75;4.30;;;;;;;15.62;60.99;100076.91;5028198;28;20059;-88
2023/05/20 02:23:54;;;;;;;9.02;4.78;;;;;;;15.58;61.51;100071.06;5026377;28;20041;-88
2023/05/20 02:26:21;;;;;;;9.85;4.32;;;;;;;15.57;61.22;100068.53;5021538;28;20645;-87
2023/05/20 02:28:49;;;;;;;6.68;4.55;;;;;;;15.59;61.23;100071.91;5026106;28;20379;-88
2023/05/20 02:31:16;;;;;;;6.35;4.10;;;;;;;15.57;61.42;100063.19;5010862;28;20041;-88
2023/05/20 02:33:44;;;;;;;7.75;4.75;;;;;;;15.55;61.06;100070.56;5007933;28;20037;-88
2023/05/20 02:36:11;;;;;;;10.35;4.60;;;;;;;15.46;61.56;100060.81;5025568;28;20049;-88
2023/05/20 02:38:38;;;;;;;11.32;4.50;;;;;;;15.48;61.43;100064.16;4995149;28;26038;-88
2023/05/20 02:41:05;;;;;;;7.88;4.40;;;;;;;15.51;61.56;100055.81;4990368;28;20121;-87
2023/05/20 02:43:32;;;;;;;7.05;4.13;;;;;;;15.50;61.21;100054.97;5013122;28;20041;-88
2023/05/20 02:46:00;;;;;;;9.40;4.78;;;;;;;15.51;61.40;100056.66;5002226;28;20052;-87
2023/05/20 02:48:27;;;;;;;7.88;4.18;;;;;;;15.52;61.10;100050.31;4995636;28;20698;-87
2023/05/20 02:50:54;;;;;;;7.22;4.43;;;;;;;15.49;61.49;100052.47;5006768;28;20045;-88
2023/05/20 02:53:21;;;;;;;7.15;4.22;;;;;;;15.51;61.24;100050.47;5021744;28;20045;-88
2023/05/20 02:55:47;;;;;;;5.90;4.55;;;;;;;15.50;61.52;100048.81;5009195;28;20044;-88
2023/05/20 02:58:14;;;;;;;8.38;4.28;;;;;;;15.49;61.41;100041.75;5021017;28;20412;-88
2023/05/20 03:00:42;;;;;;;7.97;4.55;;;;;;;15.49;61.36;100039.06;5009692;28;20063;-87
2023/05/20 03:03:09;;;;;;;6.97;4.45;;;;;;;15.41;61.60;100048.75;5023226;28;20124;-87
2023/05/20 03:05:36;;;;;;;5.88;4.07;;;;;;;15.47;61.50;100052.63;4992654;28;20056;-87
2023/05/20 03:08:10;;;;;;;9.75;5.03;;;;;;;15.44;61.75;100055.63;5006327;28;20080;-88
2023/05/20 03:10:38;;;;;;;6.53;4.35;;;;;;;15.46;61.55;100055.47;5040774;28;20045;-88
2023/05/20 03:13:08;;;;;;;10.27;5.10;;;;;;;15.47;61.92;100043.75;5039431;28;20060;-88
2023/05/20 03:15:39;;;;;;;7.10;4.70;;;;;;;15.38;62.05;100046.41;5009482;28;20041;-87
2023/05/20 03:18:07;;;;;;;10.43;4.07;;;;;;;15.41;61.85;100047.91;5022689;28;20135;-88
2023/05/20 03:20:38;;;;;;;8.00;5.05;;;;;;;15.35;62.21;100054.75;5010232;28;20098;-87
2023/05/20 03:23:06;;;;;;;8.40;5.00;;;;;;;15.34;62.17;100055.78;4972054;28;20103;-87
2023/05/20 03:25:36;;;;;;;7.70;4.78;;;;;;;15.35;62.35;100061.94;5008124;28;20041;-88
2023/05/20 03:28:03;;;;;;;8.13;5.13;;;;;;;15.30;62.50;100054.41;5021223;28;20439;-88
2023/05/20 03:30:30;;;;;;;7.63;5.05;;;;;;;15.35;62.37;100053.94;5009039;28;20052;-88
2023/05/20 03:32:57;;;;;;;5.97;4.53;;;;;;;15.32;62.57;100067.63;5019227;28;20462;-88
2023/05/20 03:35:25;;;;;;;7.95;4.78;;;;;;;15.31;62.52;100057.91;5012396;28;20045;-88
2023/05/20 03:37:52;;;;;;;8.60;5.20;;;;;;;15.29;62.67;100065.25;4996394;28;20044;-88
2023/05/20 03:40:21;;;;;;;6.93;4.45;;;;;;;15.29;63.03;100058.09;4980465;28;20052;-88
2023/05/20 03:42:49;;;;;;;12.05;4.80;;;;;;;15.34;62.66;100054.91;5021862;28;20045;-87
2023/05/20 03:45:18;;;;;;;7.00;4.63;;;;;;;15.35;62.68;100060.09;5007114;28;20037;-87
2023/05/20 03:47:59;;;;;;;9.32;5.00;;;;;;;15.37;62.79;100062.63;5024018;28;20145;-87
2023/05/20 03:50:27;;;;;;;7.68;4.88;;;;;;;15.35;63.05;100065.47;5004902;28;20132;-88
2023/05/20 03:52:54;;;;;;;7.68;5.05;;;;;;;15.37;62.99;100063.47;5024573;28;20056;-87
2023/05/20 03:55:23;;;;;;;11.38;5.57;;;;;;;15.27;63.61;100068.09;5009459;28;20072;-88
2023/05/20 03:57:51;;;;;;;8.90;5.40;;;;;;;15.31;62.91;100058.75;5009115;28;20045;-88
2023/05/20 04:00:18;;;;;;;11.30;5.47;;;;;;;15.35;63.17;100061.94;5040189;28;20057;-87
2023/05/20 04:02:46;;;;;;;13.30;5.45;;;;;;;15.33;63.33;100058.59;4992855;28;20130;-87
2023/05/20 04:05:16;;;;;;;9.75;5.50;;;;;;;15.29;63.20;100059.91;4998625;28;20095;-88
2023/05/20 04:07:43;;;;;;;8.95;4.95;;;;;;;15.32;63.23;100056.94;5028793;28;20068;-88
2023/05/20 04:10:11;;;;;;;7.43;5.47;;;;;;;15.27;63.66;100048.53;5020164;28;20095;-88
2023/05/20 04:12:39;;;;;;;10.43;5.78;;;;;;;15.23;63.53;100066.75;5011140;28;20775;-88
2023/05/20 04:15:06;;;;;;;8.98;5.60;;;;;;;15.31;63.32;100063.25;5026884;28;20132;-88
2023/05/20 04:17:47;;;;;;;11.88;6.13;;;;;;;15.29;63.72;100065.25;5026494;28;20044;-88
2023/05/20 04:20:14;;;;;;;10.98;4.97;;;;;;;15.27;63.77;100054.72;5011709;28;20502;-88
2023/05/20 04:22:41;;;;;;;7.20;5.30;;;;;;;15.31;63.63;100058.75;5029662;28;20124;-89
2023/05/20 04:25:08;;;;;;;7.43;5.30;;;;;;;15.32;63.77;100055.09;5011718;28;20044;-88
2023/05/20 04:27:38;;;;;;;11.32;6.20;;;;;;;15.26;64.06;100058.38;5013002;28;20064;-88
2023/05/20 04:30:06;;;;;;;8.13;5.25;;;;;;;15.30;63.99;100054.41;5010754;28;20099;-87
2023/05/20 04:32:37;;;;;;;12.00;6.20;;;;;;;15.29;64.14;100059.91;5025790;28;20388;-88
2023/05/20 04:35:10;;;;;;;15.95;7.18;;;;;;;15.32;63.95;100049.75;5010917;28;20123;-87
2023/05/20 04:37:41;;;;;;;8.50;5.00;;;;;;;15.35;64.19;100059.28;5010794;28;20144;-88
2023/05/20 04:40:11;;;;;;;8.52;5.65;;;;;;;15.38;63.89;100050.91;5023588;28;20067;-87
2023/05/20 04:42:38;;;;;;;11.25;6.28;;;;;;;15.44;64.18;100058.28;5008007;28;20404;-88
2023/05/20 04:45:07;;;;;;;11.68;5.97;;;;;;;15.37;64.54;100060.78;4997731;28;20129;-88
2023/05/20 04:47:37;;;;;;;14.52;6.50;;;;;;;15.39;64.27;100049.91;4992446;28;20049;-88
2023/05/20 04:50:12;;;;;;;13.50;6.13;;;;;;;15.36;64.46;100055.59;5027246;28;20052;-88
2023/05/20 04:52:44;;;;;;;10.82;6.47;;;;;;;15.40;64.30;100054.28;4993699;28;20045;-88
2023/05/20 04:55:12;;;;;;;8.98;5.55;;;;;;;15.33;64.71;100048.72;5020848;28;20053;-87
2023/05/20 04:57:40;;;;;;;11.52;6.18;;;;;;;15.44;64.31;100044.06;5027304;28;20037;-88
2023/05/20 05:00:12;;;;;;;14.00;6.53;;;;;;;15.31;65.45;100045.38;5011801;28;20037;-87
2023/05/20 05:02:39;;;;;;;10.88;6.45;;;;;;;15.31;65.10;100056.06;5008316;28;20437;-88
2023/05/20 05:05:06;;;;;;;8.32;5.88;;;;;;;15.46;64.93;100037.56;4990690;28;20053;-86
2023/05/20 05:07:33;;;;;;;10.82;6.35;;;;;;;15.38;65.20;100046.41;5024539;28;20048;-88
2023/05/20 05:10:00;;;;;;;11.63;6.60;;;;;;;15.38;65.46;100045.56;5023909;28;20048;-88
2023/05/20 05:12:31;;;;;;;13.82;6.35;;;;;;;15.50;64.82;100046.94;5004441;28;20043;-88
2023/05/20 05:14:58;;;;;;;13.13;7.10;;;;;;;15.53;65.18;100041.28;4980587;28;20112;-89
2023/05/20 05:17:27;;;;;;;9.27;6.60;;;;;;;15.55;64.93;100028.56;5026597;28;20041;-89
2023/05/20 05:19:56;;;;;;;12.93;7.38;;;;;;;15.63;64.94;100035.78;5008786;28;20048;-89
2023/05/20 05:22:24;;;;;;;10.35;6.45;;;;;;;15.75;64.73;100031.84;4992651;28;20128;-88
2023/05/20 05:24:51;;;;;;;12.18;7.65;;;;;;;15.62;65.05;100032.28;4994006;28;20145;-86
2023/05/20 05:27:18;;;;;;;14.95;7.30;;;;;;;15.73;64.68;100031.16;5011722;28;20052;-88
2023/05/20 05:29:44;;;;;;;12.15;6.57;;;;;;;15.67;64.78;100038.97;4994981;28;20559;-88
2023/05/20 05:32:11;;;;;;;12.25;8.05;;;;;;;15.68;65.27;100032.63;4996067;28;20049;-89
2023/05/20 05:34:38;;;;;;;16.20;7.55;;;;;;;15.74;65.12;100023.94;5005918;28;20064;-88
2023/05/20 05:37:05;;;;;;;12.30;6.60;;;;;;;15.66;65.44;100032.78;5008534;28;20110;-88
2023/05/20 05:39:33;;;;;;;11.38;7.70;;;;;;;15.66;65.53;100010.53;5027027;28;20050;-88
2023/05/20 05:42:00;;;;;;;12.63;6.85;;;;;;;15.68;65.29;100021.91;5023598;28;20053;-88
2023/05/20 05:44:27;;;;;;;13.30;7.72;;;;;;;15.74;65.51;100027.47;5026783;28;20136;-87
2023/05/20 05:46:53;;;;;;;13.80;7.25;;;;;;;15.69;65.91;100020.91;5008558;28;20128;-88
2023/05/20 05:49:20;;;;;;;15.68;7.55;;;;;;;15.60;66.12;100017.38;5008697;28;20776;-88
2023/05/20 05:51:48;;;;;;;15.32;7.72;;;;;;;15.64;66.01;100018.72;5024427;28;20046;-87
2023/05/20 05:54:15;;;;;;;12.10;8.15;;;;;;;15.73;66.48;100030.31;5010602;28;20052;-88
2023/05/20 05:56:42;;;;;;;11.13;6.95;;;;;;;15.81;66.06;100036.50;5006190;28;20044;-88
2023/05/20 05:59:09;;;;;;;14.95;7.85;;;;;;;15.83;66.10;100021.13;5006089;28;20053;-88
2023/05/20 06:01:36;;;;;;;12.32;8.13;;;;;;;15.88;66.50;100017.13;5009807;28;20076;-88
2023/05/20 06:04:03;;;;;;;15.63;8.32;;;;;;;15.89;65.90;100033.00;5024694;28;20045;-88
2023/05/20 06:06:32;;;;;;;13.85;8.25;;;;;;;15.87;65.43;100010.09;4996725;28;20049;-88
2023/05/20 06:08:59;;;;;;;15.18;8.52;;;;;;;15.83;65.84;100012.25;5008236;28;21032;-87
2023/05/20 06:11:26;;;;;;;13.45;7.28;;;;;;;15.74;66.72;100011.41;5018551;28;20406;-88
2023/05/20 06:13:53;;;;;;;13.52;8.23;;;;;;;15.78;66.21;100003.88;5024595;28;20047;-88
2023/05/20 06:16:20;;;;;;;13.68;8.80;;;;;;;15.83;66.18;100002.38;5010411;28;20497;-88
2023/05/20 06:18:48;;;;;;;15.60;8.60;;;;;;;15.92;66.51;99997.03;4992051;28;20045;-88
2023/05/20 06:21:15;;;;;;;18.92;8.57;;;;;;;15.95;66.58;100002.03;5008283;28;20053;-88
2023/05/20 06:23:42;;;;;;;14.70;8.15;;;;;;;16.03;67.07;100000.22;5024451;28;20048;-88
2023/05/20 06:26:10;;;;;;;14.57;7.63;;;;;;;16.10;66.13;100004.91;5026456;28;20040;-88
2023/05/20 06:28:38;;;;;;;16.58;9.00;;;;;;;16.14;66.39;99996.38;4971109;28;20049;-88
2023/05/20 06:31:05;;;;;;;14.73;8.65;;;;;;;16.16;66.38;99999.72;5003629;28;20052;-88
2023/05/20 06:33:33;;;;;;;15.20;8.52;;;;;;;16.14;67.02;99988.34;5026823;28;20045;-83
2023/05/20 06:36:05;;;;;;;15.68;8.82;;;;;;;16.16;66.82;99994.38;5010367;28;20044;-82
2023/05/20 06:38:32;;;;;;;14.65;8.25;;;;;;;16.22;66.80;100009.75;5044806;28;20820;-83
2023/05/20 06:41:00;;;;;;;16.25;8.13;;;;;;;16.27;66.67;100003.91;5006588;28;20120;-83
2023/05/20 06:43:27;;;;;;;15.93;8.50;;;;;;;16.30;66.46;99998.19;5012450;28;20045;-83
2023/05/20 06:46:03;;;;;;;19.73;9.13;;;;;;;16.42;67.18;99999.53;5024828;28;20045;-83
2023/05/20 06:48:36;;;;;;;15.15;8.65;;;;;;;16.45;68.05;99995.66;5011487;28;20049;-83
2023/05/20 06:51:06;;;;;;;15.32;8.90;;;;;;;16.55;67.01;100004.38;5025325;28;20055;-83
2023/05/20 06:53:34;;;;;;;15.45;8.75;;;;;;;16.57;66.90;99997.00;5004331;28;20056;-84
2023/05/20 06:56:02;;;;;;;20.23;9.75;;;;;;;16.58;66.45;99998.66;4996317;28;20080;-83
2023/05/20 06:58:30;;;;;;;14.05;8.63;;;;;;;16.55;66.79;100003.53;5024657;28;20130;-83
2023/05/20 07:00:57;;;;;;;12.65;8.60;;;;;;;16.58;66.53;99982.56;5009603;28;20136;-83
2023/05/20 07:03:24;;;;;;;17.52;8.63;;;;;;;16.65;67.20;99996.97;5008141;28;20049;-84
2023/05/20 07:05:51;;;;;;;18.20;8.80;;;;;;;16.71;66.68;99995.44;5005416;28;20041;-86
2023/05/20 07:08:19;;;;;;;16.08;9.05;;;;;;;16.75;66.25;99993.28;5015690;28;20041;-86
2023/05/20 07:10:46;;;;;;;18.75;10.57;;;;;;;16.67;66.48;99981.56;5025066;28;20489;-85
2023/05/20 07:13:17;;;;;;;14.27;8.55;;;;;;;16.68;66.71;99980.53;4997518;28;20051;-84
2023/05/20 07:15:46;;;;;;;19.50;10.02;;;;;;;16.78;67.03;100001.84;5009319;28;20049;-84
2023/05/20 07:18:15;;;;;;;18.50;10.35;;;;;;;16.78;65.75;99999.16;5033452;28;20045;-84
2023/05/20 07:20:44;;;;;;;14.93;9.00;;;;;;;16.73;65.91;99976.50;4991736;28;20049;-83
2023/05/20 07:23:23;;;;;;;16.95;8.60;;;;;;;16.77;66.58;99967.13;4989462;28;20528;-83
2023/05/20 07:25:53;;;;;;;18.08;9.55;;;;;;;16.89;66.39;99968.44;5024417;28;20044;-85
2023/05/20 07:28:21;;;;;;;18.48;10.57;;;;;;;16.72;65.75;99962.28;5008211;28;20051;-84
2023/05/20 07:30:49;;;;;;;15.95;9.43;;;;;;;16.77;66.54;99954.56;4993668;28;20045;-84
2023/05/20 07:33:25;;;;;;;19.05;9.55;;;;;;;16.81;66.04;99957.75;5000124;28;20048;-84
2023/05/20 07:36:01;;;;;;;19.40;10.27;;;;;;;16.82;66.59;99954.06;5011026;28;20439;-84
2023/05/20 07:38:28;;;;;;;14.80;9.63;;;;;;;16.84;65.87;99970.81;4996264;28;20076;-84
2023/05/20 07:40:59;;;;;;;17.42;10.57;;;;;;;16.89;65.68;99952.34;5027692;28;20052;-84
2023/05/20 07:43:27;;;;;;;16.30;9.45;;;;;;;16.91;65.96;99945.78;5017429;28;20041;-84
2023/05/20 07:45:55;;;;;;;17.33;9.95;;;;;;;16.93;66.54;99946.47;4982981;28;20143;-84
2023/05/20 07:48:21;;;;;;;15.43;9.68;;;;;;;17.05;66.18;99943.41;5031435;28;20080;-84
2023/05/20 07:50:48;;;;;;;20.35;10.38;;;;;;;17.02;65.96;99941.91;5025442;28;20045;-84
2023/05/20 07:53:16;;;;;;;16.75;9.50;;;;;;;17.06;65.49;99937.03;5012007;28;20041;-84
2023/05/20 07:55:43;;;;;;;20.75;9.73;;;;;;;17.09;65.62;99945.53;5020168;28;20442;-84
2023/05/20 07:58:10;;;;;;;19.13;10.18;;;;;;;17.11;65.55;99938.16;5007610;28;20060;-84
2023/05/20 08:00:38;;;;;;;16.88;10.55;;;;;;;17.12;65.96;99939.00;5026572;28;20102;-84
2023/05/20 08:03:06;;;;;;;19.77;10.20;;;;;;;17.19;65.95;99953.38;4995873;28;20048;-84
2023/05/20 08:05:48;;;;;;;19.00;10.38;;;;;;;17.13;65.07;99938.81;5026951;28;20052;-85
2023/05/20 08:08:16;;;;;;;19.58;10.77;;;;;;;17.20;65.48;99960.44;5007188;28;20048;-84
2023/05/20 08:10:51;;;;;;;22.27;10.82;;;;;;;17.14;65.21;99942.34;5004290;28;20054;-84
2023/05/20 08:13:20;;;;;;;18.95;10.52;;;;;;;17.15;65.67;99949.41;5006375;28;20400;-84
2023/05/20 08:15:47;;;;;;;18.33;11.20;;;;;;;17.18;65.60;99946.34;5010112;28;20045;-85
2023/05/20 08:18:15;;;;;;;17.95;10.40;;;;;;;17.19;65.48;99928.41;5012466;28;20408;-84
2023/05/20 08:20:42;;;;;;;17.30;10.80;;;;;;;17.21;65.76;99945.16;5008993;28;20143;-84
2023/05/20 08:23:09;;;;;;;21.52;11.25;;;;;;;17.18;65.28;99956.25;5000390;28;20197;-84
2023/05/20 08:25:37;;;;;;;21.65;11.38;;;;;;;17.13;65.59;99944.19;5045235;28;20060;-84
2023/05/20 08:28:05;;;;;;;22.63;10.77;;;;;;;17.14;66.25;99935.13;5011424;28;20047;-85
2023/05/20 08:30:35;;;;;;;18.17;10.77;;;;;;;17.16;66.74;99937.63;5009175;28;20157;-86
2023/05/20 08:33:02;;;;;;;19.02;11.93;;;;;;;17.24;66.21;99934.06;5008646;28;20116;-86
2023/05/20 08:35:29;;;;;;;22.65;12.00;;;;;;;17.26;65.53;99940.94;5011432;28;20137;-86
2023/05/20 08:37:57;;;;;;;28.00;11.75;;;;;;;17.18;65.22;99953.56;5010869;28;20116;-85
2023/05/20 08:40:26;;;;;;;22.33;11.15;;;;;;;17.17;65.03;99928.56;4996860;28;20041;-85
2023/05/20 08:42:52;;;;;;;24.02;11.63;;;;;;;17.19;64.92;99926.53;5024896;28;20519;-86
2023/05/20 08:45:25;;;;;;;19.08;11.32;;;;;;;17.16;65.03;99924.22;5001539;28;20043;-86
2023/05/20 08:47:54;;;;;;;18.50;10.90;;;;;;;17.13;65.30;99914.69;5011233;28;20045;-86
2023/05/20 08:50:21;;;;;;;20.38;10.90;;;;;;;17.24;64.92;99921.50;4992095;28;20061;-86
2023/05/20 08:52:48;;;;;;;22.45;10.93;;;;;;;17.18;65.31;99919.53;5010513;28;20496;-87
2023/05/20 08:55:25;;;;;;;19.02;11.60;;;;;;;17.13;64.55;99928.09;5008988;28;20112;-87
2023/05/20 08:57:55;;;;;;;20.42;10.75;;;;;;;17.28;64.76;99919.31;5008717;28;20057;-87
2023/05/20 09:00:26;;;;;;;16.02;10.10;;;;;;;17.32;65.53;99917.91;5041394;28;20076;-87
2023/05/20 09:02:53;;;;;;;21.95;11.38;;;;;;;17.36;65.63;99941.56;5011046;28;20115;-87
2023/05/20 09:05:21;;;;;;;23.13;11.88;;;;;;;17.45;64.82;99912.78;5024886;28;20049;-84
2023/05/20 09:07:48;;;;;;;21.42;12.48;;;;;;;17.51;64.70;99905.91;5014504;28;20822;-84
2023/05/20 09:10:15;;;;;;;23.17;12.27;;;;;;;17.58;64.54;99910.38;5010188;28;20383;-84
2023/05/20 09:12:42;;;;;;;21.98;10.98;;;;;;;17.72;65.56;99908.75;5023089;28;20053;-83
2023/05/20 09:15:10;;;;;;;20.88;11.55;;;;;;;17.69;65.48;99913.66;5010595;28;20492;-85
2023/05/20 09:17:37;;;;;;;18.83;12.05;;;;;;;17.73;65.22;99913.13;5012754;28;20049;-86
2023/05/20 09:20:09;;;;;;;21.60;11.52;;;;;;;17.80;64.38;99934.72;5016612;28;20063;-84
2023/05/20 09:22:39;;;;;;;21.23;11.80;;;;;;;17.76;64.76;99925.34;4988988;28;20497;-85
2023/05/20 09:25:06;;;;;;;19.95;12.25;;;;;;;17.79;64.05;99920.47;5017612;28;20416;-84
2023/05/20 09:27:33;;;;;;;21.02;11.48;;;;;;;17.82;64.77;99916.59;5022432;28;20077;-84
2023/05/20 09:30:00;;;;;;;23.35;12.35;;;;;;;17.77;63.69;99921.63;5024515;28;20034;-85
2023/05/20 09:32:27;;;;;;;23.00;11.95;;;;;;;17.88;63.96;99915.84;5008455;28;20542;-84
2023/05/20 09:34:54;;;;;;;20.20;11.45;;;;;;;17.85;64.17;99918.06;5025323;28;20051;-85
2023/05/20 09:37:23;;;;;;;21.25;11.98;;;;;;;17.92;64.16;99905.59;5007417;28;20132;-84
2023/05/20 09:39:55;;;;;;;17.92;11.02;;;;;;;17.99;64.36;99906.53;5012950;28;20057;-85
2023/05/20 09:42:27;;;;;;;20.00;11.13;;;;;;;18.08;63.95;99916.19;5007465;28;20057;-84
2023/05/20 09:44:55;;;;;;;23.90;12.80;;;;;;;18.14;63.25;99920.84;5019519;28;20124;-84
2023/05/20 09:47:23;;;;;;;18.88;12.13;;;;;;;18.17;63.66;99912.41;5022638;28;20055;-85
2023/05/20 09:49:51;;;;;;;22.92;12.85;;;;;;;18.18;63.80;99926.66;5026265;28;20043;-84
2023/05/20 09:52:18;;;;;;;22.52;12.48;;;;;;;18.19;62.92;99913.06;5005784;28;20523;-84
2023/05/20 09:54:48;;;;;;;22.00;13.23;;;;;;;18.18;63.30;99891.72;5025363;28;20801;-84
2023/05/20 09:57:15;;;;;;;26.02;12.77;;;;;;;18.30;62.78;99901.03;4993414;28;20049;-85
2023/05/20 09:59:43;;;;;;;22.40;11.63;;;;;;;18.30;62.70;99897.50;5042946;28;20044;-84
2023/05/20 10:02:09;;;;;;;20.85;12.40;;;;;;;18.29;62.62;99898.50;5024268;28;20041;-84
2023/05/20 10:04:41;;;;;;;19.35;12.15;;;;;;;18.29;62.93;99904.72;5003881;28;20052;-85
2023/05/20 10:07:29;;;;;;;24.83;12.68;;;;;;;18.30;61.92;99890.28;4990101;28;20061;-84
2023/05/20 10:10:43;;;;;;;28.33;12.75;;;;;;;18.36;62.20;99897.59;5008491;28;20044;-85
2023/05/20 10:13:38;;;;;;;26.35;13.77;;;;;;;18.40;62.97;99872.00;5037524;28;20042;-84
2023/05/20 10:16:23;;;;;;;23.30;12.70;;;;;;;18.50;61.70;99884.34;5006508;28;20049;-84
2023/05/20 10:19:22;;;;;;;22.67;12.48;;;;;;;18.46;61.45;99875.81;5020928;28;20539;-84
2023/05/20 10:21:57;;;;;;;24.13;13.85;;;;;;;18.46;62.53;99872.28;5000488;28;20045;-86
2023/05/20 10:24:31;;;;;;;24.63;12.98;;;;;;;18.47;61.43;99877.50;5008167;28;20056;-85
2023/05/20 10:26:59;;;;;;;24.95;13.07;;;;;;;18.64;61.67;99881.63;5023469;28;20120;-85
2023/05/20 10:29:26;;;;;;;23.40;13.52;;;;;;;18.63;60.99;99882.66;5040625;28;20052;-85
2023/05/20 10:31:52;;;;;;;22.02;13.30;;;;;;;18.60;61.60;99866.06;5025808;28;20120;-83
2023/05/20 10:34:21;;;;;;;27.05;14.13;;;;;;;18.66;61.94;99857.25;5006120;28;20484;-81
2023/05/20 10:36:53;;;;;;;21.67;13.05;;;;;;;18.64;62.80;99860.09;5035464;28;20043;-86
2023/05/20 10:39:33;;;;;;;22.48;13.50;;;;;;;18.67;61.48;99861.59;5022542;28;20127;-87
2023/05/20 10:42:09;;;;;;;21.20;11.82;;;;;;;18.64;61.99;99865.50;5003536;28;20262;-86
2023/05/20 10:44:45;;;;;;;28.13;13.18;;;;;;;18.67;61.02;99866.97;5003515;28;20456;-86
2023/05/20 10:47:13;;;;;;;25.13;13.27;;;;;;;18.64;61.38;99861.97;5000258;28;20045;-86
2023/05/20 10:49:46;;;;;;;24.85;12.90;;;;;;;18.65;61.73;99852.91;5010104;28;20094;-87
2023/05/20 10:52:13;;;;;;;20.05;12.90;;;;;;;18.69;60.82;99842.59;5006251;28;20049;-86
2023/05/20 10:54:44;;;;;;;24.90;13.40;;;;;;;18.71;61.13;99838.69;5010704;28;20051;-87
2023/05/20 10:57:11;;;;;;;21.30;12.52;;;;;;;18.73;61.28;99842.03;5020901;28;20070;-88
2023/05/20 10:59:38;;;;;;;23.58;12.98;;;;;;;18.78;61.55;99849.56;5018359;28;20816;-88
2023/05/20 11:02:04;;;;;;;20.58;12.60;;;;;;;18.82;61.41;99865.13;5024234;28;20047;-89
2023/05/20 11:04:31;;;;;;;20.80;12.43;;;;;;;18.87;58.89;99846.56;5038394;28;20044;-89
2023/05/20 11:06:58;;;;;;;25.92;13.07;;;;;;;18.83;59.14;99847.16;5007727;28;20041;-88
2023/05/20 11:09:25;;;;;;;27.88;13.32;;;;;;;18.85;59.84;99839.69;4995390;28;20095;-88
2023/05/20 11:11:53;;;;;;;25.13;12.43;;;;;;;18.95;60.70;99853.69;5015134;28;20040;-89
2023/05/20 11:14:20;;;;;;;21.20;12.65;;;;;;;18.99;60.03;99836.13;5013153;28;20143;-88
2023/05/20 11:16:52;;;;;;;23.08;12.05;;;;;;;19.09;59.93;99825.06;5007037;28;20071;-88
2023/05/20 11:19:19;;;;;;;23.70;12.50;;;;;;;19.24;60.45;99831.22;5006385;28;20037;-88
2023/05/20 11:21:47;;;;;;;18.60;11.90;;;;;;;19.24;59.24;99828.53;5009280;28;20048;-87
2023/05/20 11:24:23;;;;;;;22.10;11.23;;;;;;;19.29;58.78;99834.16;5020414;28;20044;-86
2023/05/20 11:26:50;;;;;;;25.45;13.10;;;;;;;19.27;59.21;99825.44;5006980;28;20045;-86
2023/05/20 11:29:18;;;;;;;20.65;12.07;;;;;;;19.40;58.97;99805.06;5024402;28;20045;-88